createdAt,value
2022-10-28T00:00:53.828Z,85.76
2022-10-28T00:02:55.711Z,86.15
2022-10-28T00:04:57.422Z,85.97
2022-10-28T00:06:58.937Z,85.81
2022-10-28T00:09:01.053Z,86.71
2022-10-28T00:11:19.252Z,86.90
2022-10-28T00:13:20.708Z,87.30
2022-10-28T00:15:22.126Z,86.85
2022-10-28T00:19:30.110Z,85.82
2022-10-28T00:21:34.286Z,85.41
2022-10-28T00:23:35.936Z,85.24
2022-10-28T00:25:37.372Z,84.27
2022-10-28T00:27:39.125Z,84.69
2022-10-28T00:29:40.617Z,84.20
2022-10-28T00:31:42.680Z,83.79
2022-10-28T00:33:44.566Z,84.18
2022-10-28T00:35:45.979Z,84.54
2022-10-28T00:37:47.424Z,84.84
2022-10-28T00:39:48.960Z,83.81
2022-10-28T00:41:53.149Z,84.52
2022-10-28T00:43:57.545Z,85.72
2022-10-28T00:45:58.966Z,86.34
2022-10-28T00:48:02.891Z,87.38
2022-10-28T00:50:13.168Z,86.71
2022-10-28T00:52:20.102Z,86.57
2022-10-28T00:54:22.590Z,85.85
2022-10-28T00:56:27.998Z,86.27
2022-10-28T00:58:29.791Z,87.06
2022-10-28T01:00:31.386Z,86.13
2022-10-28T01:02:37.777Z,85.70
2022-10-28T01:04:39.607Z,86.11
2022-10-28T01:06:42.592Z,86.54
2022-10-28T01:08:44.025Z,86.25
2022-10-28T01:10:57.585Z,86.69
2022-10-28T01:13:17.270Z,86.42
2022-10-28T01:15:21.573Z,86.51
2022-10-28T01:17:48.564Z,86.55
2022-10-28T01:20:08.358Z,86.58
2022-10-28T01:22:34.178Z,86.02
2022-10-28T01:25:06.317Z,84.77
2022-10-28T01:27:48.324Z,84.21
2022-10-28T01:30:07.904Z,84.39
2022-10-28T01:32:30.718Z,86.01
2022-10-28T01:35:06.469Z,88.59
2022-10-28T01:37:07.863Z,89.44
2022-10-28T01:39:24.424Z,87.92
2022-10-28T01:41:31.858Z,86.06
2022-10-28T01:43:44.673Z,85.69
2022-10-28T01:45:57.882Z,86.43
2022-10-28T01:48:02.264Z,86.40
2022-10-28T01:50:18.400Z,87.73
2022-10-28T01:52:24.973Z,87.22
2022-10-28T01:54:30.714Z,86.62
2022-10-28T01:56:37.056Z,87.32
2022-10-28T01:58:40.096Z,86.66
2022-10-28T02:00:44.369Z,86.39
2022-10-28T02:02:48.406Z,86.41
2022-10-28T02:04:49.840Z,85.80
2022-10-28T02:06:55.805Z,84.98
2022-10-28T02:09:05.948Z,85.46
2022-10-28T02:11:22.688Z,85.60
2022-10-28T02:13:37.282Z,85.97
2022-10-28T02:15:56.616Z,85.19
2022-10-28T02:18:16.061Z,84.60
2022-10-28T02:20:55.199Z,84.24
2022-10-28T02:23:16.973Z,83.54
2022-10-28T02:25:26.876Z,83.87
2022-10-28T02:27:44.678Z,84.65
2022-10-28T02:30:12.838Z,83.88
2022-10-28T02:32:19.939Z,83.96
2022-10-28T02:34:32.370Z,84.41
2022-10-28T02:36:39.500Z,84.99
2022-10-28T02:38:48.760Z,85.45
2022-10-28T02:40:55.186Z,86.58
2022-10-28T02:43:03.831Z,88.88
2022-10-28T02:45:07.873Z,89.34
2022-10-28T02:47:15.479Z,89.02
2022-10-28T02:49:17.049Z,90.07
2022-10-28T02:51:21.942Z,90.98
2022-10-28T02:53:31.744Z,92.01
2022-10-28T02:55:39.400Z,90.71
2022-10-28T02:57:44.740Z,89.33
2022-10-28T03:00:01.968Z,88.09
2022-10-28T03:02:03.811Z,87.83
2022-10-28T03:04:05.848Z,88.66
2022-10-28T03:06:08.682Z,88.15
2022-10-28T03:08:10.124Z,88.66
2022-10-28T03:10:11.626Z,89.08
2022-10-28T03:12:13.211Z,90.18
2022-10-28T03:14:15.483Z,90.21
2022-10-28T03:16:17.134Z,90.15
2022-10-28T03:18:18.550Z,89.39
2022-10-28T03:20:19.987Z,89.54
2022-10-28T03:22:21.397Z,89.40
2022-10-28T03:24:22.898Z,89.96
2022-10-28T03:26:24.349Z,89.35
2022-10-28T03:28:25.770Z,89.74
2022-10-28T03:30:27.224Z,90.74
2022-10-28T03:32:28.662Z,91.75
2022-10-28T03:34:30.156Z,91.88
2022-10-28T03:36:31.577Z,92.66
2022-10-28T03:38:33.011Z,92.75
2022-10-28T03:40:34.840Z,93.53
2022-10-28T03:42:38.855Z,93.00
2022-10-28T03:44:42.584Z,92.95
2022-10-28T03:46:44.017Z,93.18
2022-10-28T03:48:45.441Z,92.96
2022-10-28T03:50:46.938Z,93.15
2022-10-28T03:52:48.399Z,94.09
2022-10-28T03:54:49.848Z,93.74
2022-10-28T03:56:51.306Z,93.43
2022-10-28T04:00:59.191Z,93.55
2022-10-28T04:03:00.644Z,93.01
2022-10-28T04:05:02.089Z,93.09
2022-10-28T04:07:03.612Z,92.78
2022-10-28T04:09:05.099Z,93.19
2022-10-28T04:11:06.608Z,92.67
2022-10-28T04:13:09.187Z,92.62
2022-10-28T04:15:10.795Z,93.30
2022-10-28T04:17:12.328Z,93.18
2022-10-28T04:19:13.809Z,93.67
2022-10-28T04:21:15.373Z,93.52
2022-10-28T04:23:18.435Z,93.88
2022-10-28T04:25:20.052Z,93.63
2022-10-28T04:27:21.951Z,93.51
2022-10-28T04:29:23.425Z,93.19
2022-10-28T04:31:24.861Z,93.62
2022-10-28T04:33:26.303Z,93.48
2022-10-28T04:35:27.757Z,93.53
2022-10-28T04:37:29.294Z,94.06
2022-10-28T04:39:30.721Z,93.82
2022-10-28T04:41:32.211Z,93.66
2022-10-28T04:43:33.662Z,93.13
2022-10-28T04:45:35.132Z,92.75
2022-10-28T04:47:36.582Z,93.02
2022-10-28T04:49:38.950Z,92.11
2022-10-28T04:51:40.507Z,91.89
2022-10-28T04:53:42.022Z,92.49
2022-10-28T04:55:43.491Z,92.21
2022-10-28T04:57:44.908Z,91.85
2022-10-28T04:59:46.775Z,92.11
2022-10-28T05:01:48.282Z,91.90
2022-10-28T05:03:49.802Z,92.23
2022-10-28T05:05:51.219Z,91.69
2022-10-28T05:07:52.946Z,91.38
2022-10-28T05:09:55.020Z,91.65
2022-10-28T05:11:56.512Z,91.63
2022-10-28T05:13:58.079Z,91.71
2022-10-28T05:15:59.640Z,92.27
2022-10-28T05:18:01.108Z,91.24
2022-10-28T05:20:02.655Z,90.73
2022-10-28T05:22:04.508Z,90.77
2022-10-28T05:24:06.340Z,90.51
2022-10-28T05:26:08.203Z,89.43
2022-10-28T05:28:09.655Z,88.33
2022-10-28T05:30:11.854Z,88.30
2022-10-28T05:32:13.310Z,88.59
2022-10-28T05:34:14.771Z,88.11
2022-10-28T05:36:16.220Z,88.94
2022-10-28T05:38:17.878Z,90.56
2022-10-28T05:40:19.442Z,92.22
2022-10-28T05:42:20.905Z,94.05
2022-10-28T05:44:22.434Z,95.23
2022-10-28T05:46:24.100Z,94.42
2022-10-28T05:48:25.553Z,93.37
2022-10-28T05:50:27.171Z,92.43
2022-10-28T05:52:28.609Z,92.55
2022-10-28T05:54:30.105Z,92.18
2022-10-28T05:56:31.541Z,92.58
2022-10-28T05:58:33.056Z,91.99
2022-10-28T06:00:34.482Z,91.67
2022-10-28T06:02:35.957Z,91.87
2022-10-28T06:04:37.377Z,92.53
2022-10-28T06:06:38.841Z,92.53
2022-10-28T06:08:40.273Z,92.86
2022-10-28T06:10:51.072Z,93.01
2022-10-28T06:12:54.867Z,93.03
2022-10-28T06:14:56.523Z,92.22
2022-10-28T06:16:58.230Z,92.21
2022-10-28T06:18:59.693Z,91.38
2022-10-28T06:21:03.744Z,91.02
2022-10-28T06:23:05.235Z,90.84
2022-10-28T06:25:07.117Z,90.47
2022-10-28T06:27:08.568Z,89.17
2022-10-28T06:29:10.276Z,90.02
2022-10-28T06:31:11.676Z,89.61
2022-10-28T06:33:13.103Z,89.73
2022-10-28T06:35:14.752Z,89.50
2022-10-28T06:37:16.185Z,89.61
2022-10-28T06:39:17.716Z,89.37
2022-10-28T06:41:19.133Z,90.50
2022-10-28T06:43:20.559Z,90.81
2022-10-28T06:45:22.006Z,90.18
2022-10-28T06:47:25.211Z,90.60
2022-10-28T06:49:27.970Z,91.54
2022-10-28T06:51:30.317Z,91.53
2022-10-28T06:53:31.753Z,92.48
2022-10-28T06:55:33.197Z,92.74
2022-10-28T06:57:34.722Z,93.55
2022-10-28T06:59:36.601Z,93.09
2022-10-28T07:01:38.086Z,92.35
2022-10-28T07:03:39.581Z,91.61
2022-10-28T07:05:41.111Z,90.33
2022-10-28T07:07:42.524Z,90.38
2022-10-28T07:09:45.002Z,91.26
2022-10-28T07:11:53.629Z,90.81
2022-10-28T07:13:56.624Z,91.20
2022-10-28T07:15:59.892Z,91.50
2022-10-28T07:18:02.552Z,90.70
2022-10-28T07:20:04.313Z,90.11
2022-10-28T07:22:05.974Z,90.20
2022-10-28T07:24:07.616Z,90.12
2022-10-28T07:26:09.094Z,89.33
2022-10-28T07:28:10.505Z,89.13
2022-10-28T07:30:12.349Z,88.30
2022-10-28T07:32:13.809Z,88.50
2022-10-28T07:34:15.354Z,89.37
2022-10-28T07:36:16.754Z,89.69
2022-10-28T07:38:18.262Z,90.05
2022-10-28T07:40:23.745Z,90.61
2022-10-28T07:42:25.344Z,91.71
2022-10-28T07:44:27.070Z,91.95
2022-10-28T07:46:28.539Z,90.83
2022-10-28T07:48:30.052Z,90.39
2022-10-28T07:50:31.521Z,91.69
2022-10-28T07:52:33.862Z,90.93
2022-10-28T07:54:35.270Z,90.96
2022-10-28T07:56:36.790Z,91.65
2022-10-28T07:58:38.177Z,92.09
2022-10-28T08:00:39.637Z,91.75
2022-10-28T08:02:42.034Z,91.49
2022-10-28T08:04:43.486Z,91.28
2022-10-28T08:06:45.002Z,90.81
2022-10-28T08:08:48.724Z,90.66
2022-10-28T08:10:50.155Z,90.88
2022-10-28T08:12:51.559Z,91.01
2022-10-28T08:14:53.061Z,91.38
2022-10-28T08:16:54.487Z,91.72
2022-10-28T08:18:56.809Z,92.27
2022-10-28T08:21:03.424Z,92.25
2022-10-28T08:23:06.754Z,93.18
2022-10-28T08:25:09.385Z,93.34
2022-10-28T08:27:10.847Z,94.03
2022-10-28T08:29:12.450Z,94.05
2022-10-28T08:31:13.982Z,94.50
2022-10-28T08:33:16.187Z,95.06
2022-10-28T08:35:17.690Z,95.13
2022-10-28T08:37:19.206Z,95.35
2022-10-28T08:39:20.650Z,95.50
2022-10-28T08:41:39.478Z,95.24
2022-10-28T08:44:02.724Z,94.95
2022-10-28T08:46:42.410Z,94.59
2022-10-28T08:48:44.211Z,94.37
2022-10-28T08:50:58.209Z,94.19
2022-10-28T08:53:03.405Z,94.06
2022-10-28T08:55:42.158Z,93.96
2022-10-28T08:57:55.333Z,93.71
2022-10-28T08:59:58.434Z,93.53
2022-10-28T09:02:03.364Z,93.34
2022-10-28T09:04:13.204Z,93.00
2022-10-28T09:06:14.684Z,92.76
2022-10-28T09:08:28.637Z,92.78
2022-10-28T09:10:55.863Z,92.76
2022-10-28T09:13:17.025Z,92.45
2022-10-28T09:15:47.169Z,92.07
2022-10-28T09:17:58.787Z,91.63
2022-10-28T09:20:19.771Z,91.53
2022-10-28T09:22:45.213Z,91.15
2022-10-28T09:24:56.659Z,89.80
2022-10-28T09:27:06.655Z,89.17
2022-10-28T09:29:44.260Z,88.96
2022-10-28T09:31:49.699Z,88.22
2022-10-28T09:33:54.175Z,87.39
2022-10-28T09:35:56.933Z,86.61
2022-10-28T09:38:29.085Z,85.76
2022-10-28T09:40:35.083Z,84.97
2022-10-28T09:42:44.837Z,83.89
2022-10-28T09:44:54.350Z,83.54
2022-10-28T09:46:59.247Z,82.83
2022-10-28T09:49:05.888Z,82.53
2022-10-28T09:51:16.113Z,81.68
2022-10-28T09:53:35.799Z,81.27
2022-10-28T09:55:37.627Z,80.85
2022-10-28T09:57:39.136Z,80.13
2022-10-28T09:59:40.645Z,79.97
2022-10-28T10:01:43.566Z,79.87
2022-10-28T10:03:48.760Z,79.84
2022-10-28T10:05:54.110Z,79.86
2022-10-28T10:08:00.900Z,78.84
2022-10-28T10:10:28.539Z,78.38
2022-10-28T10:12:33.074Z,77.91
2022-10-28T10:14:40.290Z,77.50
2022-10-28T10:16:54.923Z,76.82
2022-10-28T10:18:59.406Z,76.55
2022-10-28T10:21:01.086Z,76.28
2022-10-28T10:23:22.219Z,75.64
2022-10-28T10:25:29.725Z,74.99
2022-10-28T10:27:32.210Z,75.19
2022-10-28T10:29:34.533Z,75.77
2022-10-28T10:31:36.001Z,73.99
2022-10-28T10:33:40.566Z,73.50
2022-10-28T10:35:42.033Z,72.87
2022-10-28T10:37:46.047Z,72.75
2022-10-28T10:40:19.272Z,72.25
2022-10-28T10:42:22.523Z,71.29
2022-10-28T10:44:31.518Z,71.94
2022-10-28T10:46:32.952Z,70.92
2022-10-28T10:48:38.495Z,69.63
2022-10-28T10:50:42.125Z,68.66
2022-10-28T10:52:50.943Z,66.69
2022-10-28T10:55:01.474Z,65.54
2022-10-28T10:57:20.760Z,64.93
2022-10-28T10:59:27.548Z,63.86
2022-10-28T11:01:35.759Z,62.06
2022-10-28T11:03:49.380Z,61.64
2022-10-28T11:06:11.471Z,59.14
2022-10-28T11:08:28.310Z,58.16
2022-10-28T11:10:32.360Z,57.15
2022-10-28T11:12:36.222Z,57.06
2022-10-28T11:14:37.648Z,56.54
2022-10-28T11:16:51.335Z,56.78
2022-10-28T11:18:53.938Z,56.93
2022-10-28T11:21:07.006Z,56.77
2022-10-28T11:23:31.328Z,56.58
2022-10-28T11:25:37.042Z,55.71
2022-10-28T11:27:38.452Z,54.09
2022-10-28T11:29:40.694Z,53.41
2022-10-28T11:31:48.169Z,53.08
2022-10-28T11:33:58.392Z,53.05
2022-10-28T11:36:11.972Z,52.47
2022-10-28T11:38:48.976Z,52.71
2022-10-28T11:41:08.432Z,53.02
2022-10-28T11:43:43.682Z,53.35
2022-10-28T11:46:08.263Z,53.89
2022-10-28T11:48:26.614Z,53.81
2022-10-28T11:50:28.015Z,55.01
2022-10-28T11:52:53.843Z,56.72
2022-10-28T11:55:07.437Z,57.21
2022-10-28T11:57:13.249Z,57.61
2022-10-28T11:59:38.246Z,58.47
2022-10-28T12:01:53.000Z,59.04
2022-10-28T12:04:11.241Z,59.38
2022-10-28T12:06:17.031Z,60.70
2022-10-28T12:08:56.449Z,60.61
2022-10-28T12:11:10.096Z,60.57
2022-10-28T12:13:27.001Z,60.55
2022-10-28T12:16:02.585Z,60.59
2022-10-28T12:18:16.171Z,62.11
2022-10-28T12:20:24.494Z,61.65
2022-10-28T12:22:31.462Z,61.93
2022-10-28T12:24:36.766Z,62.28
2022-10-28T12:26:42.311Z,62.79
2022-10-28T12:28:48.659Z,62.64
2022-10-28T12:30:52.824Z,63.01
2022-10-28T12:32:59.883Z,63.48
2022-10-28T12:35:23.770Z,63.32
2022-10-28T12:37:31.740Z,63.72
2022-10-28T12:39:56.725Z,63.75
2022-10-28T12:42:09.911Z,64.42
2022-10-28T12:44:16.150Z,64.36
2022-10-28T12:46:31.834Z,64.72
2022-10-28T12:48:48.874Z,64.88
2022-10-28T12:50:57.071Z,64.95
2022-10-28T12:53:01.207Z,64.92
2022-10-28T12:55:25.603Z,65.21
2022-10-28T12:57:30.526Z,64.86
2022-10-28T12:59:38.942Z,64.82
2022-10-28T13:01:41.042Z,65.15
2022-10-28T13:03:42.764Z,65.74
2022-10-28T13:05:47.758Z,66.46
2022-10-28T13:08:09.986Z,66.60
2022-10-28T13:10:29.317Z,66.56
2022-10-28T13:12:49.325Z,66.02
2022-10-28T13:15:25.616Z,65.71
2022-10-28T13:17:43.649Z,65.46
2022-10-28T13:19:56.943Z,65.08
2022-10-28T13:22:35.686Z,65.33
2022-10-28T13:24:53.623Z,65.66
2022-10-28T13:26:55.611Z,66.48
2022-10-28T13:29:00.350Z,66.35
2022-10-28T13:31:07.580Z,66.89
2022-10-28T13:33:18.178Z,67.59
2022-10-28T13:35:26.554Z,66.90
2022-10-28T13:37:35.015Z,67.21
2022-10-28T13:39:36.322Z,67.30
2022-10-28T13:41:42.171Z,66.94
2022-10-28T13:43:49.276Z,67.37
2022-10-28T13:45:56.119Z,67.26
2022-10-28T13:48:28.477Z,67.33
2022-10-28T13:50:33.923Z,67.21
2022-10-28T13:52:37.182Z,67.00
2022-10-28T13:54:44.357Z,67.46
2022-10-28T13:56:49.767Z,67.76
2022-10-28T13:59:00.368Z,68.12
2022-10-28T14:01:44.523Z,68.05
2022-10-28T14:03:52.026Z,68.02
2022-10-28T14:05:57.538Z,67.72
2022-10-28T14:08:01.920Z,68.33
2022-10-28T14:10:25.171Z,69.04
2022-10-28T14:12:33.885Z,68.24
2022-10-28T14:14:35.589Z,68.14
2022-10-28T14:16:39.596Z,68.11
2022-10-28T14:18:44.372Z,68.43
2022-10-28T14:20:46.305Z,68.86
2022-10-28T14:22:47.833Z,69.21
2022-10-28T14:24:49.398Z,69.44
2022-10-28T14:27:06.518Z,69.29
2022-10-28T14:29:23.792Z,69.38
2022-10-28T14:31:41.659Z,69.56
2022-10-28T14:33:43.265Z,70.00
2022-10-28T14:35:46.823Z,69.93
2022-10-28T14:38:06.725Z,70.40
2022-10-28T14:40:48.619Z,70.16
2022-10-28T14:42:59.130Z,70.34
2022-10-28T14:45:36.649Z,70.49
2022-10-28T14:48:01.163Z,70.84
2022-10-28T14:50:21.228Z,70.37
2022-10-28T14:52:23.117Z,70.66
2022-10-28T14:54:39.651Z,71.25
2022-10-28T14:56:43.629Z,71.68
2022-10-28T14:58:45.754Z,71.78
2022-10-28T15:01:12.145Z,71.72
2022-10-28T15:03:14.132Z,71.85
2022-10-28T15:05:21.335Z,71.92
2022-10-28T15:07:23.782Z,71.91
2022-10-28T15:09:30.063Z,71.88
2022-10-28T15:11:32.233Z,72.18
2022-10-28T15:13:34.061Z,72.06
2022-10-28T15:15:35.488Z,72.07
2022-10-28T15:17:42.435Z,72.10
2022-10-28T15:19:46.375Z,71.99
2022-10-28T15:22:24.550Z,71.93
2022-10-28T15:24:26.023Z,72.49
2022-10-28T15:26:27.837Z,72.70
2022-10-28T15:28:29.319Z,72.95
2022-10-28T15:30:31.026Z,72.63
2022-10-28T15:32:35.197Z,72.76
2022-10-28T15:34:36.726Z,72.73
2022-10-28T15:36:38.283Z,72.73
2022-10-28T15:38:42.008Z,73.20
2022-10-28T15:40:43.526Z,73.66
2022-10-28T15:42:52.146Z,74.02
2022-10-28T15:44:57.404Z,74.22
2022-10-28T15:47:00.526Z,74.30
2022-10-28T15:49:02.316Z,74.71
2022-10-28T15:51:15.026Z,74.79
2022-10-28T15:53:36.567Z,75.07
2022-10-28T15:58:11.742Z,75.75
2022-10-28T16:00:27.542Z,76.07
2022-10-28T16:02:42.486Z,76.21
2022-10-28T16:04:44.605Z,76.46
2022-10-28T16:06:46.411Z,76.60
2022-10-28T16:08:58.206Z,76.61
2022-10-28T16:11:03.166Z,76.84
2022-10-28T16:13:09.075Z,76.94
2022-10-28T16:15:14.793Z,76.79
2022-10-28T16:17:23.055Z,77.05
2022-10-28T16:19:28.801Z,77.05
2022-10-28T16:21:31.751Z,77.31
2022-10-28T16:23:37.187Z,77.67
2022-10-28T16:25:38.606Z,77.91
2022-10-28T16:27:40.243Z,77.90
2022-10-28T16:29:41.680Z,77.78
2022-10-28T16:31:45.893Z,77.67
2022-10-28T16:33:47.538Z,77.83
2022-10-28T16:35:48.983Z,77.36
2022-10-28T16:37:55.576Z,77.27
2022-10-28T16:40:00.275Z,77.21
2022-10-28T16:42:01.746Z,77.22
2022-10-28T16:44:03.321Z,77.17
2022-10-28T16:46:05.045Z,76.97
2022-10-28T16:48:11.529Z,76.85
2022-10-28T16:50:13.893Z,76.75
2022-10-28T16:52:35.827Z,76.61
2022-10-28T16:54:37.284Z,76.42
2022-10-28T16:56:38.988Z,76.37
2022-10-28T16:58:42.368Z,76.30
2022-10-28T17:00:44.280Z,76.06
2022-10-28T17:02:50.670Z,76.11
2022-10-28T17:04:52.151Z,76.15
2022-10-28T17:06:53.609Z,75.97
2022-10-28T17:09:02.767Z,75.86
2022-10-28T17:11:05.014Z,75.79
2022-10-28T17:13:16.218Z,75.48
2022-10-28T17:15:18.312Z,75.37
2022-10-28T17:17:20.436Z,75.40
2022-10-28T17:19:24.249Z,75.36
2022-10-28T17:21:25.846Z,75.40
2022-10-28T17:23:28.052Z,75.62
2022-10-28T17:25:29.638Z,75.56
2022-10-28T17:27:31.103Z,75.78
2022-10-28T17:29:32.673Z,76.25
2022-10-28T17:31:34.083Z,76.15
2022-10-28T17:33:35.672Z,75.99
2022-10-28T17:35:37.124Z,75.86
2022-10-28T17:37:38.562Z,75.75
2022-10-28T17:39:40.056Z,75.70
2022-10-28T17:41:41.555Z,75.37
2022-10-28T17:43:42.993Z,75.29
2022-10-28T17:45:44.440Z,75.09
2022-10-28T17:47:45.921Z,74.92
2022-10-28T17:49:47.436Z,74.88
2022-10-28T17:51:48.983Z,74.67
2022-10-28T17:53:54.826Z,74.65
2022-10-28T17:56:00.710Z,74.56
2022-10-28T17:58:02.228Z,74.33
2022-10-28T18:00:04.091Z,74.41
2022-10-28T18:02:05.810Z,74.37
2022-10-28T18:04:08.421Z,74.58
2022-10-28T18:06:12.396Z,74.56
2022-10-28T18:08:13.811Z,74.70
2022-10-28T18:10:16.721Z,74.80
2022-10-28T18:12:18.162Z,74.71
2022-10-28T18:14:20.230Z,75.02
2022-10-28T18:16:25.295Z,74.78
2022-10-28T18:18:26.754Z,74.89
2022-10-28T18:20:28.189Z,74.77
2022-10-28T18:22:29.625Z,74.90
2022-10-28T18:24:31.066Z,74.83
2022-10-28T18:26:34.976Z,74.84
2022-10-28T18:28:37.474Z,74.82
2022-10-28T18:30:38.921Z,74.39
2022-10-28T18:32:40.432Z,74.60
2022-10-28T18:34:41.937Z,74.47
2022-10-28T18:36:43.470Z,74.40
2022-10-28T18:38:45.127Z,74.55
2022-10-28T18:40:47.511Z,74.60
2022-10-28T18:42:48.945Z,74.67
2022-10-28T18:44:50.417Z,74.66
2022-10-28T18:46:51.948Z,74.60
2022-10-28T18:48:53.712Z,74.60
2022-10-28T18:50:59.938Z,74.50
2022-10-28T18:53:02.420Z,74.62
2022-10-28T18:55:05.229Z,74.56
2022-10-28T18:57:06.684Z,74.73
2022-10-28T18:59:08.222Z,74.83
2022-10-28T19:01:14.991Z,74.68
2022-10-28T19:03:19.514Z,75.07
2022-10-28T19:05:21.001Z,74.89
2022-10-28T19:07:22.415Z,74.87
2022-10-28T19:09:23.872Z,75.12
2022-10-28T19:11:31.156Z,75.15
2022-10-28T19:13:34.715Z,75.38
2022-10-28T19:15:41.971Z,75.46
2022-10-28T19:17:43.403Z,75.60
2022-10-28T19:19:45.576Z,75.80
2022-10-28T19:21:47.030Z,75.93
2022-10-28T19:23:48.488Z,76.03
2022-10-28T19:25:57.305Z,76.22
2022-10-28T19:27:59.534Z,76.50
2022-10-28T19:30:05.501Z,76.53
2022-10-28T19:32:09.339Z,76.67
2022-10-28T19:34:10.911Z,76.73
2022-10-28T19:36:18.765Z,76.78
2022-10-28T19:38:20.219Z,77.03
2022-10-28T19:40:21.673Z,76.96
2022-10-28T19:42:23.113Z,77.06
2022-10-28T19:44:24.583Z,77.12
2022-10-28T19:46:27.833Z,77.35
2022-10-28T19:48:29.623Z,77.52
2022-10-28T19:50:31.073Z,77.74
2022-10-28T19:52:32.532Z,77.87
2022-10-28T19:54:33.952Z,78.12
2022-10-28T19:56:36.136Z,78.19
2022-10-28T19:58:37.564Z,78.09
2022-10-28T20:00:39.039Z,78.25
2022-10-28T20:02:40.570Z,78.59
2022-10-28T20:04:42.107Z,78.85
2022-10-28T20:06:43.562Z,79.06
2022-10-28T20:08:46.499Z,79.35
2022-10-28T20:10:56.841Z,79.40
2022-10-28T20:12:58.402Z,79.55
2022-10-28T20:15:00.105Z,79.37
2022-10-28T20:17:06.389Z,79.81
2022-10-28T20:19:08.719Z,79.61
2022-10-28T20:21:15.625Z,79.58
2022-10-28T20:23:17.071Z,79.90
2022-10-28T20:25:18.495Z,79.95
2022-10-28T20:27:19.929Z,79.97
2022-10-28T20:29:21.529Z,79.85
2022-10-28T20:31:28.972Z,80.04
2022-10-28T20:33:31.314Z,80.37
2022-10-28T20:35:34.315Z,80.48
2022-10-28T20:37:35.732Z,80.77
2022-10-28T20:39:37.210Z,80.92
2022-10-28T20:41:40.228Z,80.99
2022-10-28T20:43:41.752Z,81.25
2022-10-28T20:45:43.234Z,81.08
2022-10-28T20:47:44.668Z,81.52
2022-10-28T20:49:46.099Z,81.69
2022-10-28T20:51:47.584Z,81.57
2022-10-28T20:53:49.124Z,82.11
2022-10-28T20:55:52.571Z,81.90
2022-10-28T20:57:53.988Z,82.02
2022-10-28T20:59:55.421Z,81.97
2022-10-28T21:01:57.029Z,81.90
2022-10-28T21:04:01.289Z,82.11
2022-10-28T21:06:04.020Z,82.10
2022-10-28T21:08:05.669Z,82.28
2022-10-28T21:10:07.832Z,82.04
2022-10-28T21:12:09.265Z,82.09
2022-10-28T21:14:10.738Z,82.32
2022-10-28T21:16:13.287Z,82.30
2022-10-28T21:18:14.799Z,82.34
2022-10-28T21:20:16.379Z,82.46
2022-10-28T21:22:18.457Z,82.74
2022-10-28T21:24:19.919Z,82.86
2022-10-28T21:26:21.496Z,82.17
2022-10-28T21:28:23.961Z,82.37
2022-10-28T21:30:26.808Z,82.92
2022-10-28T21:32:28.295Z,83.44
2022-10-28T21:34:29.725Z,83.85
2022-10-28T21:36:31.772Z,84.19
2022-10-28T21:38:34.044Z,84.36
2022-10-28T21:40:35.471Z,84.20
2022-10-28T21:42:36.946Z,84.50
2022-10-28T21:44:38.380Z,84.90
2022-10-28T21:46:39.797Z,85.04
2022-10-28T21:48:41.423Z,85.15
2022-10-28T21:50:50.603Z,84.89
2022-10-28T21:52:52.103Z,85.32
2022-10-28T21:54:53.555Z,85.32
2022-10-28T21:56:54.986Z,85.41
2022-10-28T21:58:56.425Z,85.54
2022-10-28T22:01:05.476Z,85.78
2022-10-28T22:03:06.915Z,86.07
2022-10-28T22:05:08.508Z,86.15
2022-10-28T22:07:09.954Z,86.11
2022-10-28T22:09:11.403Z,86.18
2022-10-28T22:11:15.953Z,86.48
2022-10-28T22:13:17.368Z,86.54
2022-10-28T22:15:18.855Z,86.27
2022-10-28T22:17:20.285Z,86.44
2022-10-28T22:19:21.894Z,86.60
2022-10-28T22:21:26.456Z,86.73
2022-10-28T22:23:27.871Z,86.73
2022-10-28T22:25:29.367Z,86.92
2022-10-28T22:27:30.896Z,86.87
2022-10-28T22:29:32.393Z,86.98
2022-10-28T22:31:34.046Z,86.85
2022-10-28T22:33:36.193Z,86.87
2022-10-28T22:35:37.653Z,87.13
2022-10-28T22:37:39.068Z,87.18
2022-10-28T22:39:40.590Z,86.77
2022-10-28T22:41:42.080Z,87.00
2022-10-28T22:43:46.103Z,87.00
2022-10-28T22:45:47.666Z,87.23
2022-10-28T22:47:50.655Z,87.29
2022-10-28T22:49:52.108Z,87.51
2022-10-28T22:51:53.524Z,87.50
2022-10-28T22:53:55.025Z,87.50
2022-10-28T22:55:57.252Z,87.34
2022-10-28T22:57:58.920Z,87.20
2022-10-28T23:00:00.563Z,86.97
2022-10-28T23:02:02.087Z,87.02
2022-10-28T23:04:03.754Z,87.07
2022-10-28T23:06:06.001Z,87.52
2022-10-28T23:08:08.551Z,87.55
2022-10-28T23:10:10.136Z,86.70
2022-10-28T23:12:11.574Z,86.34
2022-10-28T23:14:13.096Z,86.96
2022-10-28T23:16:16.097Z,87.23
2022-10-28T23:18:17.531Z,87.56
2022-10-28T23:20:24.726Z,87.58
2022-10-28T23:22:28.266Z,87.47
2022-10-28T23:24:29.727Z,87.40
2022-10-28T23:26:31.183Z,87.66
2022-10-28T23:28:32.948Z,87.84
2022-10-28T23:30:34.420Z,88.30
2022-10-28T23:32:35.847Z,88.38
2022-10-28T23:34:37.312Z,88.54
2022-10-28T23:36:40.034Z,88.62
2022-10-28T23:38:41.971Z,88.22
2022-10-28T23:40:43.478Z,88.61
2022-10-28T23:42:44.910Z,88.39
2022-10-28T23:44:46.544Z,88.31
2022-10-28T23:46:48.133Z,88.51
2022-10-28T23:48:49.585Z,88.81
2022-10-28T23:50:51.961Z,89.06
2022-10-28T23:52:55.556Z,88.52
2022-10-28T23:54:57.168Z,87.84
2022-10-28T23:56:58.592Z,88.16
2022-10-28T23:59:00.070Z,88.59
